Wednesday, December 19, 2018, 3:50 PM GMT
Back to Local

CXHF, High Falls , Que.

Location: , , Canada Lat: 45.833
Local Time: 3:50 PM GMT (15:50 GMT) Lon: -75.65
Time Zone: GMT Elev: 623 ft

Show me the last for .
Show Coded

Time T Td Feel RH Dir Speed Gust Alt SLP Vis Weather Sky Remarks
2018-12-19 15:00 15 10 - 80 - - - - - 0 None
2018-12-19 14:00 12 9 - 84 - - - - - 0 None
2018-12-19 13:00 10 7 - 84 - - - - - 0 None
2018-12-19 12:00 8 6 - 87 - - - - - 0 None
2018-12-19 11:00 6 3 - 87 - - - - - 0 None
2018-12-19 10:00 6 3 - 88 - - - - - 0 None
2018-12-19 09:00 6 3 - 86 - - - - - 0 None
2018-12-19 08:00 7 4 - 87 - - - - - 0 None
2018-12-19 07:00 8 5 - 88 - - - - - 0 None
2018-12-19 06:00 9 5 - 86 - - - - - 0 None
2018-12-19 05:00 9 8 - 96 - - - - - 0 None
2018-12-19 04:00 9 6 - 88 - - - - - 0 None
2018-12-19 03:00 10 6 - 84 - - - - - 0 None
2018-12-19 02:00 13 6 - 74 - - - - - 0 None
2018-12-19 01:00 13 7 - 74 - - - - - 0 None
2018-12-19 00:00 15 7 - 70 - - - - - 0 None
2018-12-18 23:00 16 9 - 71 - - - - - 0 None
2018-12-18 22:00 18 10 - 69 - - - - - 0 None
2018-12-18 21:00 19 11 - 70 - - - - - 0 None
2018-12-18 20:00 20 11 - 67 - - - - - 0 None
2018-12-18 19:00 20 11 - 66 - - - - - 0 None
2018-12-18 18:00 20 12 - 69 - - - - - 0 None
2018-12-18 17:00 19 10 - 67 - - - - - 0 None
2018-12-18 16:00 17 9 - 69 - - - - - 0 None

Support USWX by starting your Amazon purchase here.